createdAt,value
2023-03-04T00:05:31.129Z,49.5
2023-03-04T00:11:23.959Z,49.4
2023-03-04T00:17:04.063Z,49.4
2023-03-04T00:22:56.881Z,49.4
2023-03-04T00:28:34.566Z,49.4
2023-03-04T00:34:27.161Z,49.3
2023-03-04T00:40:20.417Z,49.3
2023-03-04T00:45:57.812Z,49.3
2023-03-04T00:51:19.499Z,49.2
2023-03-04T00:57:10.870Z,49.1
2023-03-04T01:02:48.814Z,49.1
2023-03-04T01:08:10.573Z,49.1
2023-03-04T01:13:48.206Z,49.1
2023-03-04T01:19:25.675Z,49
2023-03-04T01:25:02.534Z,48.9
2023-03-04T01:30:39.604Z,48.9
2023-03-04T01:36:17.258Z,48.9
2023-03-04T01:41:38.852Z,48.9
2023-03-04T01:47:03.975Z,48.8
2023-03-04T01:52:26.458Z,48.8
2023-03-04T01:57:47.715Z,48.8
2023-03-04T02:03:09.777Z,48.7
2023-03-04T02:08:32.077Z,48.7
2023-03-04T02:14:09.654Z,48.6
2023-03-04T02:19:16.832Z,48.6
2023-03-04T02:24:38.807Z,48.6
2023-03-04T02:30:15.677Z,48.6
2023-03-04T02:35:53.139Z,48.5
2023-03-04T02:41:30.788Z,48.4
2023-03-04T02:47:07.446Z,48.4
2023-03-04T02:52:43.810Z,48.4
2023-03-04T02:58:21.483Z,48.4
2023-03-04T03:03:43.530Z,48.3
2023-03-04T03:09:21.184Z,48.3
2023-03-04T03:14:59.290Z,48.3
2023-03-04T03:20:22.013Z,48.2
2023-03-04T03:25:59.422Z,48.2
2023-03-04T03:31:36.951Z,48.1
2023-03-04T03:37:14.460Z,48.1
2023-03-04T03:42:51.892Z,48.1
2023-03-04T03:48:14.205Z,48
2023-03-04T03:53:35.361Z,48
2023-03-04T03:59:14.091Z,47.9
2023-03-04T04:04:52.305Z,47.9
2023-03-04T04:10:29.393Z,47.9
2023-03-04T04:16:06.565Z,47.9
2023-03-04T04:21:31.917Z,47.8
2023-03-04T04:27:09.651Z,47.8
2023-03-04T04:32:46.948Z,47.8
2023-03-04T04:37:52.779Z,47.8
2023-03-04T04:43:30.696Z,47.7
2023-03-04T04:48:53.193Z,47.6
2023-03-04T04:54:46.764Z,47.6
2023-03-04T05:00:23.375Z,47.6
2023-03-04T05:06:01.107Z,47.6
2023-03-04T05:11:38.202Z,47.5
2023-03-04T05:17:30.975Z,47.4
2023-03-04T05:23:07.840Z,47.4
2023-03-04T05:28:44.760Z,47.4
2023-03-04T05:34:21.915Z,47.4
2023-03-04T05:40:00.633Z,47.3
2023-03-04T05:45:37.165Z,47.3
2023-03-04T05:51:29.751Z,47.3
2023-03-04T05:57:22.768Z,47.2
2023-03-04T06:03:15.231Z,47.2
2023-03-04T06:08:52.798Z,47.1
2023-03-04T06:14:45.460Z,47.1
2023-03-04T06:20:37.900Z,47.1
2023-03-04T06:26:30.045Z,47.1
2023-03-04T06:32:09.690Z,47
2023-03-04T06:38:03.120Z,46.9
2023-03-04T06:43:56.317Z,46.9
2023-03-04T06:49:34.387Z,46.9
2023-03-04T06:55:26.962Z,46.8
2023-03-04T07:01:18.994Z,46.8
2023-03-04T07:07:10.925Z,46.8
2023-03-04T07:13:03.564Z,46.8
2023-03-04T07:18:56.360Z,46.7
2023-03-04T07:24:49.625Z,46.7
2023-03-04T07:30:41.758Z,46.6
2023-03-04T07:36:34.389Z,46.6
2023-03-04T07:42:27.296Z,46.5
2023-03-04T07:48:20.451Z,46.5
2023-03-04T07:54:15.924Z,46.5
2023-03-04T08:00:07.972Z,46.4
2023-03-04T08:06:00.652Z,46.4
2023-03-04T08:11:53.022Z,46.4
2023-03-04T08:17:46.102Z,46.3
2023-03-04T08:23:24.450Z,46.3
2023-03-04T08:29:02.026Z,46.3
2023-03-04T08:34:57.369Z,46.2
2023-03-04T08:40:37.732Z,46.2
2023-03-04T08:46:30.953Z,46.1
2023-03-04T08:52:24.001Z,46.1
2023-03-04T08:58:16.654Z,46.1
2023-03-04T09:04:09.327Z,46.1
2023-03-04T09:10:02.120Z,46
2023-03-04T09:16:04.077Z,45.9
2023-03-04T09:21:57.752Z,45.9
2023-03-04T09:27:50.882Z,45.9
2023-03-04T09:33:43.573Z,45.9
2023-03-04T09:39:35.985Z,45.8
2023-03-04T09:45:13.532Z,45.8
2023-03-04T09:51:08.773Z,45.8
2023-03-04T09:57:05.702Z,45.8
2023-03-04T10:02:59.580Z,45.7
2023-03-04T10:08:52.070Z,45.6
2023-03-04T10:14:44.564Z,45.6
2023-03-04T10:20:38.403Z,45.6
2023-03-04T10:26:33.700Z,45.6
2023-03-04T10:32:11.627Z,45.5
2023-03-04T10:38:04.167Z,45.5
2023-03-04T10:43:57.045Z,45.4
2023-03-04T10:49:50.458Z,45.4
2023-03-04T10:55:42.570Z,45.3
2023-03-04T11:01:21.995Z,45.3
2023-03-04T11:07:15.070Z,45.2
2023-03-04T11:13:17.460Z,45.2
2023-03-04T11:19:09.082Z,45.1
2023-03-04T11:25:17.869Z,45.1
2023-03-04T11:31:10.285Z,45.1
2023-03-04T11:37:04.365Z,45.1
2023-03-04T11:42:57.955Z,45
2023-03-04T11:49:07.794Z,44.9
2023-03-04T11:55:00.652Z,44.9
2023-03-04T12:00:53.916Z,44.9
2023-03-04T12:06:48.148Z,44.9
2023-03-04T12:12:25.867Z,44.8
2023-03-04T12:18:21.059Z,44.8
2023-03-04T12:24:13.407Z,44.8
2023-03-04T12:29:51.842Z,44.7
2023-03-04T12:35:49.209Z,44.7
2023-03-04T12:41:27.479Z,44.6
2023-03-04T12:47:03.969Z,44.6
2023-03-04T12:52:58.534Z,44.6
2023-03-04T12:58:52.032Z,44.6
2023-03-04T13:04:30.151Z,44.5
2023-03-04T13:10:07.731Z,44.4
2023-03-04T13:16:04.264Z,44.4
2023-03-04T13:21:42.895Z,44.4
2023-03-04T13:27:37.315Z,44.4
2023-03-04T13:33:33.518Z,44.3
2023-03-04T13:39:28.189Z,44.3
2023-03-04T13:45:05.834Z,44.3
2023-03-04T13:50:59.961Z,44.2
2023-03-04T13:57:08.838Z,44.2
2023-03-04T14:03:02.088Z,44.1
2023-03-04T14:08:56.577Z,44.1
2023-03-04T14:14:33.630Z,44.1
2023-03-04T14:20:27.137Z,44
2023-03-04T14:26:20.420Z,44
2023-03-04T14:32:07.545Z,44
2023-03-04T14:38:00.360Z,43.9
2023-03-04T14:43:52.489Z,43.9
2023-03-04T14:49:57.599Z,43.9
2023-03-04T14:55:49.898Z,43.8
2023-03-04T15:01:41.793Z,43.8
2023-03-04T15:07:35.872Z,43.8
2023-03-04T15:13:28.614Z,43.8
2023-03-04T15:19:22.103Z,43.7
2023-03-04T15:24:58.683Z,43.7
2023-03-04T15:30:53.465Z,43.6
2023-03-04T15:36:46.049Z,43.6
2023-03-04T15:42:37.754Z,43.6
2023-03-04T15:48:18.157Z,43.5
2023-03-04T15:53:57.007Z,43.5
2023-03-04T15:59:49.017Z,43.4
2023-03-04T16:05:41.882Z,43.4
2023-03-04T16:11:34.313Z,43.4
2023-03-04T16:17:26.802Z,43.4
2023-03-04T16:23:19.436Z,43.3
2023-03-04T16:29:11.932Z,43.3
2023-03-04T16:34:51.411Z,43.3
2023-03-04T16:40:44.384Z,43.3
2023-03-04T16:46:21.981Z,43.2
2023-03-04T16:52:16.105Z,43.2
2023-03-04T16:58:09.084Z,43.1
2023-03-04T17:04:02.208Z,43.1
2023-03-04T17:09:57.046Z,43.1
2023-03-04T17:15:33.672Z,43
2023-03-04T17:21:11.036Z,43
2023-03-04T17:27:02.941Z,42.9
2023-03-04T17:32:40.756Z,42.9
2023-03-04T17:38:33.287Z,42.9
2023-03-04T17:44:10.068Z,42.9
2023-03-04T17:49:47.469Z,42.9
2023-03-04T17:55:39.087Z,42.8
2023-03-04T18:01:16.076Z,42.8
2023-03-04T18:07:08.749Z,42.8
2023-03-04T18:12:45.985Z,42.8
2023-03-04T18:18:38.094Z,42.8
2023-03-04T18:23:59.459Z,42.9
2023-03-04T18:29:36.388Z,42.9
2023-03-04T18:35:25.630Z,42.9
2023-03-04T18:41:02.928Z,42.9
2023-03-04T18:46:56.042Z,43.1
2023-03-04T18:52:48.491Z,43.4
2023-03-04T18:58:41.233Z,43.6
2023-03-04T19:04:33.843Z,43.9
2023-03-04T19:10:25.525Z,44
2023-03-04T19:15:49.189Z,44.4
2023-03-04T19:21:26.208Z,44.6
2023-03-04T19:27:03.046Z,44.8
2023-03-04T19:32:56.232Z,45.4
2023-03-04T19:38:33.083Z,45.7
2023-03-04T19:43:38.663Z,46.4
2023-03-04T19:49:32.119Z,46.7
2023-03-04T19:55:09.246Z,47.1
2023-03-04T20:00:46.785Z,47.1
2023-03-04T20:06:24.509Z,47.3
2023-03-04T20:17:03.172Z,47.4
2023-03-04T20:22:40.776Z,47.4
2023-03-04T20:28:03.034Z,47.3
2023-03-04T20:33:40.610Z,47.3
2023-03-04T20:39:29.006Z,47.3
2023-03-04T20:45:07.117Z,47.3
2023-03-04T20:50:58.838Z,47.3
2023-03-04T20:56:35.640Z,47.3
2023-03-04T21:01:26.610Z,47.3
2023-03-04T21:07:19.179Z,47.2
2023-03-04T21:13:12.600Z,47.2
2023-03-04T21:19:05.392Z,47.1
2023-03-04T21:25:01.456Z,47.1
2023-03-04T21:30:54.119Z,47.1
2023-03-04T21:36:46.271Z,47.1
2023-03-04T21:42:23.161Z,47.1
2023-03-04T21:47:59.445Z,47
2023-03-04T21:53:54.715Z,47
2023-03-04T21:59:15.562Z,46.9
2023-03-04T22:04:54.444Z,46.9
2023-03-04T22:10:46.794Z,46.9
2023-03-04T22:15:53.248Z,46.9
2023-03-04T22:21:42.575Z,46.8
2023-03-04T22:27:04.196Z,46.8
2023-03-04T22:32:42.021Z,46.8
2023-03-04T22:37:49.482Z,46.8
2023-03-04T22:43:10.849Z,46.7
2023-03-04T22:48:32.646Z,46.7
2023-03-04T22:54:09.849Z,46.6
2023-03-04T22:59:47.727Z,46.6
2023-03-04T23:05:39.857Z,46.6
2023-03-04T23:11:32.251Z,46.4
2023-03-04T23:17:25.066Z,46.4
2023-03-04T23:23:17.472Z,46.3
2023-03-04T23:28:55.293Z,46.3
2023-03-04T23:34:48.810Z,46.3
2023-03-04T23:40:40.705Z,46.3
2023-03-04T23:46:33.903Z,46.2
2023-03-04T23:52:11.343Z,46.1
2023-03-04T23:58:03.474Z,46.1
